sensor_id;sensor_type;location;lat;lon;timestamp;P1;durP1;ratioP1;P2;durP2;ratioP2
65096;SDS011;51686;46.758;4.356;2024-03-02T00:02:15;34.53;;;18.02;;
65096;SDS011;51686;46.758;4.356;2024-03-02T00:05:02;31.38;;;16.88;;
65096;SDS011;51686;46.758;4.356;2024-03-02T00:07:54;32.28;;;18.13;;
65096;SDS011;51686;46.758;4.356;2024-03-02T00:10:42;32.53;;;17.30;;
65096;SDS011;51686;46.758;4.356;2024-03-02T00:13:29;34.00;;;17.75;;
65096;SDS011;51686;46.758;4.356;2024-03-02T00:16:20;32.58;;;16.75;;
65096;SDS011;51686;46.758;4.356;2024-03-02T00:19:07;30.65;;;17.58;;
65096;SDS011;51686;46.758;4.356;2024-03-02T00:21:55;32.57;;;17.60;;
65096;SDS011;51686;46.758;4.356;2024-03-02T00:24:42;33.20;;;16.58;;
65096;SDS011;51686;46.758;4.356;2024-03-02T00:27:29;33.35;;;18.65;;
65096;SDS011;51686;46.758;4.356;2024-03-02T00:30:41;32.63;;;18.02;;
65096;SDS011;51686;46.758;4.356;2024-03-02T00:33:36;35.92;;;18.75;;
65096;SDS011;51686;46.758;4.356;2024-03-02T00:36:24;32.35;;;17.40;;
65096;SDS011;51686;46.758;4.356;2024-03-02T00:39:12;36.22;;;19.23;;
65096;SDS011;51686;46.758;4.356;2024-03-02T00:44:48;32.65;;;17.90;;
65096;SDS011;51686;46.758;4.356;2024-03-02T00:47:39;32.33;;;16.60;;
65096;SDS011;51686;46.758;4.356;2024-03-02T00:50:26;33.10;;;17.45;;
65096;SDS011;51686;46.758;4.356;2024-03-02T00:53:16;34.22;;;17.58;;
65096;SDS011;51686;46.758;4.356;2024-03-02T00:56:04;35.55;;;17.45;;
65096;SDS011;51686;46.758;4.356;2024-03-02T00:58:56;34.72;;;18.30;;
65096;SDS011;51686;46.758;4.356;2024-03-02T01:01:42;34.13;;;17.58;;
65096;SDS011;51686;46.758;4.356;2024-03-02T01:04:30;34.88;;;18.30;;
65096;SDS011;51686;46.758;4.356;2024-03-02T01:07:16;34.17;;;18.00;;
65096;SDS011;51686;46.758;4.356;2024-03-02T01:10:03;35.30;;;17.98;;
65096;SDS011;51686;46.758;4.356;2024-03-02T01:12:51;32.13;;;16.80;;
65096;SDS011;51686;46.758;4.356;2024-03-02T01:15:38;34.38;;;17.73;;
65096;SDS011;51686;46.758;4.356;2024-03-02T01:18:25;34.33;;;17.67;;
65096;SDS011;51686;46.758;4.356;2024-03-02T01:21:12;35.50;;;17.23;;
65096;SDS011;51686;46.758;4.356;2024-03-02T01:23:59;31.58;;;16.77;;
65096;SDS011;51686;46.758;4.356;2024-03-02T01:26:45;33.20;;;17.33;;
65096;SDS011;51686;46.758;4.356;2024-03-02T01:29:32;33.10;;;17.75;;
65096;SDS011;51686;46.758;4.356;2024-03-02T01:32:19;34.85;;;17.65;;
65096;SDS011;51686;46.758;4.356;2024-03-02T01:35:06;30.38;;;15.98;;
65096;SDS011;51686;46.758;4.356;2024-03-02T01:37:54;31.20;;;16.45;;
65096;SDS011;51686;46.758;4.356;2024-03-02T01:40:41;31.45;;;16.42;;
65096;SDS011;51686;46.758;4.356;2024-03-02T01:43:28;31.98;;;16.50;;
65096;SDS011;51686;46.758;4.356;2024-03-02T01:46:15;31.60;;;16.63;;
65096;SDS011;51686;46.758;4.356;2024-03-02T01:49:02;29.60;;;16.33;;
65096;SDS011;51686;46.758;4.356;2024-03-02T01:51:49;29.52;;;15.98;;
65096;SDS011;51686;46.758;4.356;2024-03-02T01:54:36;31.25;;;15.77;;
65096;SDS011;51686;46.758;4.356;2024-03-02T01:57:23;30.00;;;14.82;;
65096;SDS011;51686;46.758;4.356;2024-03-02T02:00:10;31.85;;;17.02;;
65096;SDS011;51686;46.758;4.356;2024-03-02T02:02:57;31.80;;;16.50;;
65096;SDS011;51686;46.758;4.356;2024-03-02T02:05:44;31.60;;;16.27;;
65096;SDS011;51686;46.758;4.356;2024-03-02T02:08:32;28.80;;;15.43;;
65096;SDS011;51686;46.758;4.356;2024-03-02T02:11:19;30.48;;;16.13;;
65096;SDS011;51686;46.758;4.356;2024-03-02T02:14:06;30.25;;;16.17;;
65096;SDS011;51686;46.758;4.356;2024-03-02T02:16:53;30.48;;;16.25;;
65096;SDS011;51686;46.758;4.356;2024-03-02T02:19:40;30.15;;;16.05;;
65096;SDS011;51686;46.758;4.356;2024-03-02T02:22:27;28.98;;;15.80;;
65096;SDS011;51686;46.758;4.356;2024-03-02T02:25:14;28.55;;;15.02;;
65096;SDS011;51686;46.758;4.356;2024-03-02T02:28:01;27.33;;;15.25;;
65096;SDS011;51686;46.758;4.356;2024-03-02T02:30:48;29.42;;;15.20;;
65096;SDS011;51686;46.758;4.356;2024-03-02T02:33:38;30.02;;;15.82;;
65096;SDS011;51686;46.758;4.356;2024-03-02T02:36:26;29.55;;;15.60;;
65096;SDS011;51686;46.758;4.356;2024-03-02T02:39:14;28.88;;;15.30;;
65096;SDS011;51686;46.758;4.356;2024-03-02T02:42:02;25.23;;;14.45;;
65096;SDS011;51686;46.758;4.356;2024-03-02T02:44:49;26.60;;;14.68;;
65096;SDS011;51686;46.758;4.356;2024-03-02T02:47:36;27.83;;;15.18;;
65096;SDS011;51686;46.758;4.356;2024-03-02T02:50:23;28.48;;;15.02;;
65096;SDS011;51686;46.758;4.356;2024-03-02T02:53:10;27.20;;;14.77;;
65096;SDS011;51686;46.758;4.356;2024-03-02T02:55:57;29.80;;;15.15;;
65096;SDS011;51686;46.758;4.356;2024-03-02T02:58:44;27.63;;;15.35;;
65096;SDS011;51686;46.758;4.356;2024-03-02T03:01:30;29.08;;;15.15;;
65096;SDS011;51686;46.758;4.356;2024-03-02T03:04:17;28.02;;;15.40;;
65096;SDS011;51686;46.758;4.356;2024-03-02T03:07:04;27.50;;;15.13;;
65096;SDS011;51686;46.758;4.356;2024-03-02T03:09:51;27.33;;;14.85;;
65096;SDS011;51686;46.758;4.356;2024-03-02T03:12:38;26.83;;;14.65;;
65096;SDS011;51686;46.758;4.356;2024-03-02T03:15:27;27.58;;;15.27;;
65096;SDS011;51686;46.758;4.356;2024-03-02T03:18:14;26.42;;;14.60;;
65096;SDS011;51686;46.758;4.356;2024-03-02T03:21:01;28.88;;;15.07;;
65096;SDS011;51686;46.758;4.356;2024-03-02T03:23:48;27.80;;;15.02;;
65096;SDS011;51686;46.758;4.356;2024-03-02T03:26:36;27.45;;;15.10;;
65096;SDS011;51686;46.758;4.356;2024-03-02T03:29:23;28.30;;;14.98;;
65096;SDS011;51686;46.758;4.356;2024-03-02T03:32:10;29.60;;;15.60;;
65096;SDS011;51686;46.758;4.356;2024-03-02T03:34:57;26.50;;;14.23;;
65096;SDS011;51686;46.758;4.356;2024-03-02T03:37:44;27.20;;;15.10;;
65096;SDS011;51686;46.758;4.356;2024-03-02T03:40:31;27.90;;;14.35;;
65096;SDS011;51686;46.758;4.356;2024-03-02T03:43:17;29.38;;;15.13;;
65096;SDS011;51686;46.758;4.356;2024-03-02T03:46:04;25.90;;;13.93;;
65096;SDS011;51686;46.758;4.356;2024-03-02T03:48:51;28.95;;;15.15;;
65096;SDS011;51686;46.758;4.356;2024-03-02T03:51:38;28.67;;;15.35;;
65096;SDS011;51686;46.758;4.356;2024-03-02T03:54:25;27.67;;;15.18;;
65096;SDS011;51686;46.758;4.356;2024-03-02T03:57:12;29.98;;;15.32;;
65096;SDS011;51686;46.758;4.356;2024-03-02T03:59:59;27.98;;;14.35;;
65096;SDS011;51686;46.758;4.356;2024-03-02T04:02:47;26.95;;;14.98;;
65096;SDS011;51686;46.758;4.356;2024-03-02T04:05:34;28.45;;;14.65;;
65096;SDS011;51686;46.758;4.356;2024-03-02T04:08:21;29.58;;;16.42;;
65096;SDS011;51686;46.758;4.356;2024-03-02T04:11:07;28.30;;;14.52;;
65096;SDS011;51686;46.758;4.356;2024-03-02T04:13:54;28.92;;;15.45;;
65096;SDS011;51686;46.758;4.356;2024-03-02T04:16:44;29.77;;;15.32;;
65096;SDS011;51686;46.758;4.356;2024-03-02T04:19:31;30.80;;;16.40;;
65096;SDS011;51686;46.758;4.356;2024-03-02T04:22:18;27.17;;;15.32;;
65096;SDS011;51686;46.758;4.356;2024-03-02T04:25:11;30.52;;;15.15;;
65096;SDS011;51686;46.758;4.356;2024-03-02T04:27:58;29.70;;;15.77;;
65096;SDS011;51686;46.758;4.356;2024-03-02T04:30:45;27.52;;;14.88;;
65096;SDS011;51686;46.758;4.356;2024-03-02T04:33:31;29.50;;;15.10;;
65096;SDS011;51686;46.758;4.356;2024-03-02T04:36:19;28.95;;;15.80;;
65096;SDS011;51686;46.758;4.356;2024-03-02T04:39:05;27.27;;;14.82;;
65096;SDS011;51686;46.758;4.356;2024-03-02T04:41:56;29.15;;;15.90;;
65096;SDS011;51686;46.758;4.356;2024-03-02T04:44:43;27.13;;;14.68;;
65096;SDS011;51686;46.758;4.356;2024-03-02T04:47:30;27.63;;;15.02;;
65096;SDS011;51686;46.758;4.356;2024-03-02T04:50:17;30.15;;;16.10;;
65096;SDS011;51686;46.758;4.356;2024-03-02T04:53:04;30.80;;;16.25;;
65096;SDS011;51686;46.758;4.356;2024-03-02T04:55:51;30.08;;;16.27;;
65096;SDS011;51686;46.758;4.356;2024-03-02T04:58:40;29.02;;;15.70;;
65096;SDS011;51686;46.758;4.356;2024-03-02T05:01:27;28.20;;;14.98;;
65096;SDS011;51686;46.758;4.356;2024-03-02T05:04:14;27.13;;;14.75;;
65096;SDS011;51686;46.758;4.356;2024-03-02T05:07:01;30.30;;;15.40;;
65096;SDS011;51686;46.758;4.356;2024-03-02T05:09:48;26.58;;;15.43;;
65096;SDS011;51686;46.758;4.356;2024-03-02T05:12:35;28.00;;;14.85;;
65096;SDS011;51686;46.758;4.356;2024-03-02T05:15:31;29.45;;;15.93;;
65096;SDS011;51686;46.758;4.356;2024-03-02T05:18:18;29.55;;;15.48;;
65096;SDS011;51686;46.758;4.356;2024-03-02T05:21:05;28.42;;;14.65;;
65096;SDS011;51686;46.758;4.356;2024-03-02T05:23:52;30.08;;;15.23;;
65096;SDS011;51686;46.758;4.356;2024-03-02T05:26:39;26.38;;;14.55;;
65096;SDS011;51686;46.758;4.356;2024-03-02T05:29:26;29.80;;;14.50;;
65096;SDS011;51686;46.758;4.356;2024-03-02T05:32:12;26.52;;;14.63;;
65096;SDS011;51686;46.758;4.356;2024-03-02T05:34:59;27.80;;;14.90;;
65096;SDS011;51686;46.758;4.356;2024-03-02T05:37:46;27.52;;;14.32;;
65096;SDS011;51686;46.758;4.356;2024-03-02T05:40:33;26.45;;;14.70;;
65096;SDS011;51686;46.758;4.356;2024-03-02T05:43:20;24.27;;;13.32;;
65096;SDS011;51686;46.758;4.356;2024-03-02T05:46:07;27.88;;;15.18;;
65096;SDS011;51686;46.758;4.356;2024-03-02T05:48:54;28.55;;;14.45;;
65096;SDS011;51686;46.758;4.356;2024-03-02T05:51:41;28.90;;;14.32;;
65096;SDS011;51686;46.758;4.356;2024-03-02T05:54:28;25.30;;;14.27;;
65096;SDS011;51686;46.758;4.356;2024-03-02T05:57:15;25.23;;;13.73;;
65096;SDS011;51686;46.758;4.356;2024-03-02T06:00:20;26.42;;;14.00;;
65096;SDS011;51686;46.758;4.356;2024-03-02T06:03:08;24.83;;;13.27;;
65096;SDS011;51686;46.758;4.356;2024-03-02T06:05:56;27.75;;;13.63;;
65096;SDS011;51686;46.758;4.356;2024-03-02T06:08:43;26.80;;;14.30;;
65096;SDS011;51686;46.758;4.356;2024-03-02T06:11:30;24.80;;;13.98;;
65096;SDS011;51686;46.758;4.356;2024-03-02T06:14:17;26.75;;;14.15;;
65096;SDS011;51686;46.758;4.356;2024-03-02T06:17:03;25.40;;;13.98;;
65096;SDS011;51686;46.758;4.356;2024-03-02T06:19:50;25.58;;;14.07;;
65096;SDS011;51686;46.758;4.356;2024-03-02T06:22:37;25.50;;;12.82;;
65096;SDS011;51686;46.758;4.356;2024-03-02T06:25:24;24.48;;;13.80;;
65096;SDS011;51686;46.758;4.356;2024-03-02T06:28:11;26.38;;;13.57;;
65096;SDS011;51686;46.758;4.356;2024-03-02T06:30:58;27.77;;;13.20;;
65096;SDS011;51686;46.758;4.356;2024-03-02T06:33:45;24.90;;;13.27;;
65096;SDS011;51686;46.758;4.356;2024-03-02T06:36:32;26.23;;;14.25;;
65096;SDS011;51686;46.758;4.356;2024-03-02T06:39:19;25.08;;;13.23;;
65096;SDS011;51686;46.758;4.356;2024-03-02T06:42:06;25.90;;;14.35;;
65096;SDS011;51686;46.758;4.356;2024-03-02T06:44:53;23.95;;;13.02;;
65096;SDS011;51686;46.758;4.356;2024-03-02T06:47:40;27.98;;;14.40;;
65096;SDS011;51686;46.758;4.356;2024-03-02T06:50:27;24.60;;;13.63;;
65096;SDS011;51686;46.758;4.356;2024-03-02T06:53:15;26.45;;;13.55;;
65096;SDS011;51686;46.758;4.356;2024-03-02T06:58:51;26.15;;;13.65;;
65096;SDS011;51686;46.758;4.356;2024-03-02T07:01:39;24.02;;;13.65;;
65096;SDS011;51686;46.758;4.356;2024-03-02T07:04:26;23.77;;;13.40;;
65096;SDS011;51686;46.758;4.356;2024-03-02T07:07:12;24.20;;;13.50;;
65096;SDS011;51686;46.758;4.356;2024-03-02T07:09:59;26.95;;;13.73;;
65096;SDS011;51686;46.758;4.356;2024-03-02T07:12:47;24.83;;;13.32;;
65096;SDS011;51686;46.758;4.356;2024-03-02T07:15:34;26.92;;;14.20;;
65096;SDS011;51686;46.758;4.356;2024-03-02T07:18:36;25.15;;;13.48;;
65096;SDS011;51686;46.758;4.356;2024-03-02T07:21:27;25.90;;;13.38;;
65096;SDS011;51686;46.758;4.356;2024-03-02T07:24:14;25.52;;;13.43;;
65096;SDS011;51686;46.758;4.356;2024-03-02T07:27:03;26.25;;;13.15;;
65096;SDS011;51686;46.758;4.356;2024-03-02T07:29:51;25.92;;;13.93;;
65096;SDS011;51686;46.758;4.356;2024-03-02T07:32:38;24.13;;;13.98;;
65096;SDS011;51686;46.758;4.356;2024-03-02T07:35:26;26.92;;;13.50;;
65096;SDS011;51686;46.758;4.356;2024-03-02T07:38:14;25.93;;;12.97;;
65096;SDS011;51686;46.758;4.356;2024-03-02T07:41:01;26.52;;;13.60;;
65096;SDS011;51686;46.758;4.356;2024-03-02T07:43:48;24.50;;;13.50;;
65096;SDS011;51686;46.758;4.356;2024-03-02T07:46:35;23.63;;;13.75;;
65096;SDS011;51686;46.758;4.356;2024-03-02T07:49:22;22.80;;;13.43;;
65096;SDS011;51686;46.758;4.356;2024-03-02T07:52:09;23.02;;;12.38;;
65096;SDS011;51686;46.758;4.356;2024-03-02T07:54:56;23.00;;;12.63;;
65096;SDS011;51686;46.758;4.356;2024-03-02T07:57:43;23.00;;;11.40;;
65096;SDS011;51686;46.758;4.356;2024-03-02T08:00:30;26.02;;;13.75;;
65096;SDS011;51686;46.758;4.356;2024-03-02T08:03:17;22.63;;;11.60;;
65096;SDS011;51686;46.758;4.356;2024-03-02T08:06:04;22.77;;;12.20;;
65096;SDS011;51686;46.758;4.356;2024-03-02T08:08:51;24.30;;;12.95;;
65096;SDS011;51686;46.758;4.356;2024-03-02T08:11:38;25.17;;;13.52;;
65096;SDS011;51686;46.758;4.356;2024-03-02T08:14:25;24.10;;;12.80;;
65096;SDS011;51686;46.758;4.356;2024-03-02T08:17:12;24.30;;;13.13;;
65096;SDS011;51686;46.758;4.356;2024-03-02T08:19:59;23.02;;;12.95;;
65096;SDS011;51686;46.758;4.356;2024-03-02T08:22:46;23.80;;;12.80;;
65096;SDS011;51686;46.758;4.356;2024-03-02T08:25:33;25.67;;;12.75;;
65096;SDS011;51686;46.758;4.356;2024-03-02T08:28:20;24.50;;;12.88;;
65096;SDS011;51686;46.758;4.356;2024-03-02T08:31:07;25.67;;;13.70;;
65096;SDS011;51686;46.758;4.356;2024-03-02T08:33:54;25.92;;;13.10;;
65096;SDS011;51686;46.758;4.356;2024-03-02T08:36:41;24.55;;;12.93;;
65096;SDS011;51686;46.758;4.356;2024-03-02T08:39:29;25.58;;;13.40;;
65096;SDS011;51686;46.758;4.356;2024-03-02T08:42:16;25.30;;;13.80;;
65096;SDS011;51686;46.758;4.356;2024-03-02T08:45:04;24.92;;;13.05;;
65096;SDS011;51686;46.758;4.356;2024-03-02T08:47:51;26.63;;;14.23;;
65096;SDS011;51686;46.758;4.356;2024-03-02T08:50:38;26.23;;;13.70;;
65096;SDS011;51686;46.758;4.356;2024-03-02T08:53:25;25.00;;;13.55;;
65096;SDS011;51686;46.758;4.356;2024-03-02T08:56:12;27.35;;;13.95;;
65096;SDS011;51686;46.758;4.356;2024-03-02T08:59:01;27.00;;;13.95;;
65096;SDS011;51686;46.758;4.356;2024-03-02T09:02:58;27.02;;;13.52;;
65096;SDS011;51686;46.758;4.356;2024-03-02T09:06:47;27.77;;;14.52;;
65096;SDS011;51686;46.758;4.356;2024-03-02T09:11:00;27.65;;;13.68;;
65096;SDS011;51686;46.758;4.356;2024-03-02T09:14:35;24.60;;;13.53;;
65096;SDS011;51686;46.758;4.356;2024-03-02T09:22:15;27.55;;;14.65;;
65096;SDS011;51686;46.758;4.356;2024-03-02T09:26:20;30.25;;;15.68;;
65096;SDS011;51686;46.758;4.356;2024-03-02T09:30:07;29.05;;;14.43;;
65096;SDS011;51686;46.758;4.356;2024-03-02T09:34:11;31.98;;;15.55;;
65096;SDS011;51686;46.758;4.356;2024-03-02T09:36:59;37.72;;;18.02;;
65096;SDS011;51686;46.758;4.356;2024-03-02T09:39:46;42.72;;;20.58;;
65096;SDS011;51686;46.758;4.356;2024-03-02T09:42:33;41.28;;;20.17;;
65096;SDS011;51686;46.758;4.356;2024-03-02T09:45:23;45.10;;;21.38;;
65096;SDS011;51686;46.758;4.356;2024-03-02T09:48:11;46.72;;;21.90;;
65096;SDS011;51686;46.758;4.356;2024-03-02T09:51:01;51.80;;;24.27;;
65096;SDS011;51686;46.758;4.356;2024-03-02T09:53:50;49.22;;;24.08;;
65096;SDS011;51686;46.758;4.356;2024-03-02T09:56:37;47.40;;;22.42;;
65096;SDS011;51686;46.758;4.356;2024-03-02T09:59:24;48.90;;;23.67;;
65096;SDS011;51686;46.758;4.356;2024-03-02T10:02:11;45.55;;;21.83;;
65096;SDS011;51686;46.758;4.356;2024-03-02T10:04:58;49.05;;;22.95;;
65096;SDS011;51686;46.758;4.356;2024-03-02T10:07:51;50.47;;;23.38;;
65096;SDS011;51686;46.758;4.356;2024-03-02T10:10:47;43.75;;;20.88;;
65096;SDS011;51686;46.758;4.356;2024-03-02T10:13:33;43.95;;;21.45;;
65096;SDS011;51686;46.758;4.356;2024-03-02T10:16:21;38.85;;;18.55;;
65096;SDS011;51686;46.758;4.356;2024-03-02T10:19:21;35.47;;;18.35;;
65096;SDS011;51686;46.758;4.356;2024-03-02T10:22:09;38.13;;;18.42;;
65096;SDS011;51686;46.758;4.356;2024-03-02T10:24:56;34.85;;;17.42;;
65096;SDS011;51686;46.758;4.356;2024-03-02T10:27:45;33.65;;;17.98;;
65096;SDS011;51686;46.758;4.356;2024-03-02T10:30:36;36.05;;;18.17;;
65096;SDS011;51686;46.758;4.356;2024-03-02T10:33:23;35.38;;;17.10;;
65096;SDS011;51686;46.758;4.356;2024-03-02T10:36:11;35.58;;;17.90;;
65096;SDS011;51686;46.758;4.356;2024-03-02T10:38:58;38.28;;;18.02;;
65096;SDS011;51686;46.758;4.356;2024-03-02T10:41:46;34.67;;;17.40;;
65096;SDS011;51686;46.758;4.356;2024-03-02T10:44:36;33.17;;;16.58;;
65096;SDS011;51686;46.758;4.356;2024-03-02T10:47:23;34.33;;;17.08;;
65096;SDS011;51686;46.758;4.356;2024-03-02T10:50:11;35.45;;;17.38;;
65096;SDS011;51686;46.758;4.356;2024-03-02T10:52:58;35.17;;;16.35;;
65096;SDS011;51686;46.758;4.356;2024-03-02T10:55:45;34.65;;;15.95;;
65096;SDS011;51686;46.758;4.356;2024-03-02T10:58:34;31.98;;;14.55;;
65096;SDS011;51686;46.758;4.356;2024-03-02T11:01:22;33.78;;;15.85;;
65096;SDS011;51686;46.758;4.356;2024-03-02T11:04:09;37.13;;;15.48;;
65096;SDS011;51686;46.758;4.356;2024-03-02T11:09:56;31.95;;;15.80;;
65096;SDS011;51686;46.758;4.356;2024-03-02T11:12:52;30.35;;;14.77;;
65096;SDS011;51686;46.758;4.356;2024-03-02T11:15:43;30.67;;;16.02;;
65096;SDS011;51686;46.758;4.356;2024-03-02T11:18:31;31.58;;;16.27;;
65096;SDS011;51686;46.758;4.356;2024-03-02T11:21:19;27.33;;;15.10;;
65096;SDS011;51686;46.758;4.356;2024-03-02T11:27:08;29.30;;;14.77;;
65096;SDS011;51686;46.758;4.356;2024-03-02T11:29:59;29.70;;;15.45;;
65096;SDS011;51686;46.758;4.356;2024-03-02T11:32:49;30.58;;;14.13;;
65096;SDS011;51686;46.758;4.356;2024-03-02T11:35:42;26.92;;;13.85;;
65096;SDS011;51686;46.758;4.356;2024-03-02T11:38:32;26.90;;;13.55;;
65096;SDS011;51686;46.758;4.356;2024-03-02T11:41:20;26.13;;;14.07;;
65096;SDS011;51686;46.758;4.356;2024-03-02T11:44:06;28.17;;;14.13;;
65096;SDS011;51686;46.758;4.356;2024-03-02T11:46:58;28.52;;;14.00;;
65096;SDS011;51686;46.758;4.356;2024-03-02T11:49:48;32.35;;;15.40;;
65096;SDS011;51686;46.758;4.356;2024-03-02T11:52:36;27.42;;;13.70;;
65096;SDS011;51686;46.758;4.356;2024-03-02T11:55:25;27.40;;;14.80;;
65096;SDS011;51686;46.758;4.356;2024-03-02T11:58:12;30.92;;;14.52;;
65096;SDS011;51686;46.758;4.356;2024-03-02T12:01:00;27.17;;;13.55;;
65096;SDS011;51686;46.758;4.356;2024-03-02T12:03:47;28.77;;;14.32;;
65096;SDS011;51686;46.758;4.356;2024-03-02T12:06:35;26.00;;;12.93;;
65096;SDS011;51686;46.758;4.356;2024-03-02T12:09:22;26.67;;;13.23;;
65096;SDS011;51686;46.758;4.356;2024-03-02T12:12:09;27.02;;;13.93;;
65096;SDS011;51686;46.758;4.356;2024-03-02T12:14:56;26.75;;;13.25;;
65096;SDS011;51686;46.758;4.356;2024-03-02T12:17:43;26.05;;;12.63;;
65096;SDS011;51686;46.758;4.356;2024-03-02T12:20:32;27.37;;;14.47;;
65096;SDS011;51686;46.758;4.356;2024-03-02T12:23:20;33.45;;;17.08;;
65096;SDS011;51686;46.758;4.356;2024-03-02T12:26:07;27.33;;;14.23;;
65096;SDS011;51686;46.758;4.356;2024-03-02T12:28:54;28.10;;;15.27;;
65096;SDS011;51686;46.758;4.356;2024-03-02T12:31:42;27.67;;;14.25;;
65096;SDS011;51686;46.758;4.356;2024-03-02T12:34:31;27.67;;;14.18;;
65096;SDS011;51686;46.758;4.356;2024-03-02T12:37:19;25.77;;;13.60;;
65096;SDS011;51686;46.758;4.356;2024-03-02T12:40:06;24.58;;;12.82;;
65096;SDS011;51686;46.758;4.356;2024-03-02T12:42:53;28.58;;;13.40;;
65096;SDS011;51686;46.758;4.356;2024-03-02T12:45:40;25.83;;;13.10;;
65096;SDS011;51686;46.758;4.356;2024-03-02T12:48:27;27.17;;;13.43;;
65096;SDS011;51686;46.758;4.356;2024-03-02T12:51:14;23.95;;;12.55;;
65096;SDS011;51686;46.758;4.356;2024-03-02T12:54:01;25.80;;;12.02;;
65096;SDS011;51686;46.758;4.356;2024-03-02T12:56:50;25.92;;;13.10;;
65096;SDS011;51686;46.758;4.356;2024-03-02T12:59:37;24.60;;;12.68;;
65096;SDS011;51686;46.758;4.356;2024-03-02T13:02:26;23.35;;;12.20;;
65096;SDS011;51686;46.758;4.356;2024-03-02T13:05:14;23.40;;;11.98;;
65096;SDS011;51686;46.758;4.356;2024-03-02T13:08:01;24.38;;;13.23;;
65096;SDS011;51686;46.758;4.356;2024-03-02T13:13:38;24.25;;;11.85;;
65096;SDS011;51686;46.758;4.356;2024-03-02T13:16:25;22.70;;;11.75;;
65096;SDS011;51686;46.758;4.356;2024-03-02T13:19:18;23.25;;;11.48;;
65096;SDS011;51686;46.758;4.356;2024-03-02T13:22:05;23.73;;;12.48;;
65096;SDS011;51686;46.758;4.356;2024-03-02T13:24:53;22.00;;;11.68;;
65096;SDS011;51686;46.758;4.356;2024-03-02T13:27:44;23.83;;;11.05;;
65096;SDS011;51686;46.758;4.356;2024-03-02T13:30:31;21.90;;;11.15;;
65096;SDS011;51686;46.758;4.356;2024-03-02T13:33:18;20.88;;;10.68;;
65096;SDS011;51686;46.758;4.356;2024-03-02T13:36:10;23.25;;;12.13;;
65096;SDS011;51686;46.758;4.356;2024-03-02T13:38:57;22.70;;;11.70;;
65096;SDS011;51686;46.758;4.356;2024-03-02T13:41:45;27.88;;;15.15;;
65096;SDS011;51686;46.758;4.356;2024-03-02T13:44:39;27.83;;;14.15;;
65096;SDS011;51686;46.758;4.356;2024-03-02T13:47:26;26.95;;;14.57;;
65096;SDS011;51686;46.758;4.356;2024-03-02T13:50:13;26.63;;;13.10;;
65096;SDS011;51686;46.758;4.356;2024-03-02T13:53:00;27.38;;;14.93;;
65096;SDS011;51686;46.758;4.356;2024-03-02T13:55:47;27.73;;;15.52;;
65096;SDS011;51686;46.758;4.356;2024-03-02T13:58:34;24.02;;;14.57;;
65096;SDS011;51686;46.758;4.356;2024-03-02T14:01:21;23.90;;;12.23;;
65096;SDS011;51686;46.758;4.356;2024-03-02T14:04:08;22.00;;;11.30;;
65096;SDS011;51686;46.758;4.356;2024-03-02T14:06:55;20.83;;;10.15;;
65096;SDS011;51686;46.758;4.356;2024-03-02T14:09:43;19.50;;;10.48;;
65096;SDS011;51686;46.758;4.356;2024-03-02T14:12:29;19.85;;;10.43;;
65096;SDS011;51686;46.758;4.356;2024-03-02T14:15:17;17.75;;;9.55;;
65096;SDS011;51686;46.758;4.356;2024-03-02T14:18:07;20.88;;;10.90;;
65096;SDS011;51686;46.758;4.356;2024-03-02T14:20:56;17.95;;;9.80;;
65096;SDS011;51686;46.758;4.356;2024-03-02T14:23:43;20.33;;;10.05;;
65096;SDS011;51686;46.758;4.356;2024-03-02T14:26:30;18.05;;;9.13;;
65096;SDS011;51686;46.758;4.356;2024-03-02T14:29:17;18.13;;;9.73;;
65096;SDS011;51686;46.758;4.356;2024-03-02T14:32:05;17.85;;;9.18;;
65096;SDS011;51686;46.758;4.356;2024-03-02T14:34:52;16.15;;;8.25;;
65096;SDS011;51686;46.758;4.356;2024-03-02T14:37:39;17.15;;;8.90;;
65096;SDS011;51686;46.758;4.356;2024-03-02T14:40:26;16.60;;;8.75;;
65096;SDS011;51686;46.758;4.356;2024-03-02T14:43:15;15.45;;;8.15;;
65096;SDS011;51686;46.758;4.356;2024-03-02T14:46:03;17.38;;;9.00;;
65096;SDS011;51686;46.758;4.356;2024-03-02T14:48:50;14.98;;;7.93;;
65096;SDS011;51686;46.758;4.356;2024-03-02T14:51:37;15.77;;;7.82;;
65096;SDS011;51686;46.758;4.356;2024-03-02T14:54:24;15.85;;;7.15;;
65096;SDS011;51686;46.758;4.356;2024-03-02T14:57:11;13.65;;;7.10;;
65096;SDS011;51686;46.758;4.356;2024-03-02T14:59:58;14.20;;;7.25;;
65096;SDS011;51686;46.758;4.356;2024-03-02T15:02:45;15.23;;;7.45;;
65096;SDS011;51686;46.758;4.356;2024-03-02T15:05:32;15.27;;;7.47;;
65096;SDS011;51686;46.758;4.356;2024-03-02T15:08:19;13.43;;;6.80;;
65096;SDS011;51686;46.758;4.356;2024-03-02T15:11:05;14.63;;;6.60;;
65096;SDS011;51686;46.758;4.356;2024-03-02T15:13:52;14.55;;;7.05;;
65096;SDS011;51686;46.758;4.356;2024-03-02T15:16:40;14.65;;;6.78;;
65096;SDS011;51686;46.758;4.356;2024-03-02T15:19:28;13.98;;;7.15;;
65096;SDS011;51686;46.758;4.356;2024-03-02T15:22:15;12.68;;;6.10;;
65096;SDS011;51686;46.758;4.356;2024-03-02T15:25:02;13.52;;;5.70;;
65096;SDS011;51686;46.758;4.356;2024-03-02T15:27:49;11.77;;;5.93;;
65096;SDS011;51686;46.758;4.356;2024-03-02T15:30:36;12.77;;;6.10;;
65096;SDS011;51686;46.758;4.356;2024-03-02T15:33:23;14.23;;;6.63;;
65096;SDS011;51686;46.758;4.356;2024-03-02T15:36:16;12.40;;;6.18;;
65096;SDS011;51686;46.758;4.356;2024-03-02T15:39:03;12.60;;;5.95;;
65096;SDS011;51686;46.758;4.356;2024-03-02T15:41:55;11.88;;;5.80;;
65096;SDS011;51686;46.758;4.356;2024-03-02T15:44:42;11.93;;;5.60;;
65096;SDS011;51686;46.758;4.356;2024-03-02T15:47:30;12.10;;;5.85;;
65096;SDS011;51686;46.758;4.356;2024-03-02T15:50:17;11.48;;;5.85;;
65096;SDS011;51686;46.758;4.356;2024-03-02T15:53:04;12.07;;;6.00;;
65096;SDS011;51686;46.758;4.356;2024-03-02T15:55:53;13.30;;;6.65;;
65096;SDS011;51686;46.758;4.356;2024-03-02T15:58:39;14.20;;;6.40;;
65096;SDS011;51686;46.758;4.356;2024-03-02T16:01:26;12.05;;;5.65;;
65096;SDS011;51686;46.758;4.356;2024-03-02T16:04:16;13.77;;;6.72;;
65096;SDS011;51686;46.758;4.356;2024-03-02T16:07:03;13.32;;;6.13;;
65096;SDS011;51686;46.758;4.356;2024-03-02T16:09:51;13.77;;;6.35;;
65096;SDS011;51686;46.758;4.356;2024-03-02T16:12:38;14.13;;;6.82;;
65096;SDS011;51686;46.758;4.356;2024-03-02T16:15:25;12.02;;;5.90;;
65096;SDS011;51686;46.758;4.356;2024-03-02T16:18:15;13.63;;;6.00;;
65096;SDS011;51686;46.758;4.356;2024-03-02T16:21:02;12.30;;;6.03;;
65096;SDS011;51686;46.758;4.356;2024-03-02T16:23:50;12.18;;;5.93;;
65096;SDS011;51686;46.758;4.356;2024-03-02T16:26:37;11.73;;;5.70;;
65096;SDS011;51686;46.758;4.356;2024-03-02T16:29:25;11.70;;;5.70;;
65096;SDS011;51686;46.758;4.356;2024-03-02T16:32:12;11.82;;;5.70;;
65096;SDS011;51686;46.758;4.356;2024-03-02T16:34:59;12.98;;;6.07;;
65096;SDS011;51686;46.758;4.356;2024-03-02T16:37:46;11.40;;;5.55;;
65096;SDS011;51686;46.758;4.356;2024-03-02T16:40:33;12.20;;;6.00;;
65096;SDS011;51686;46.758;4.356;2024-03-02T16:43:20;12.95;;;6.28;;
65096;SDS011;51686;46.758;4.356;2024-03-02T16:46:06;11.52;;;5.75;;
65096;SDS011;51686;46.758;4.356;2024-03-02T16:48:56;13.77;;;6.20;;
65096;SDS011;51686;46.758;4.356;2024-03-02T16:51:43;12.40;;;5.60;;